Ana Sayfa
METAR-TAF:

METAR-TAF

Havaalanları :

Jayapura, Endonezya

Enlem: 02-34-37S, Boylam: 140-30-58E, yükseklik: 88 m

Güncel hava durumu gözlemi

Rapor saat 06:00 UTC de 33 dakika önce yapıldı.
Rüzgar batı/kuzeybatıdan 10 kt
Sıcaklık 32°C
Nem 67%
Basınç 1004 hPa
Görüş mesafesi 10 km veya daha fazla
1400 ft yükseklikte parçalı bulutlu

METAR: WAJJ 290600Z 29010KT 9999 SCT014 32/25 Q1004 NOSIG

Saat: 13:33 (06:33 UTC)


TAF: eksik

4.000'den fazla havaalanı için hava durumu gözlemleri ve tahminleri (METAR ve TAF raporları).

Kullanılabilir istasyonlar harita üzerinde sarı ve kırmızı noktalarla gösterilir.

İstasyonun adını görmek için fareyi noktanın üzerinde gezdirin.

Sonrasında hava gözlem ve tahminlerini görmek için tıklayın.

Haritayı değiştirmek için: yaklaştırmak için siyah artı işaretli yeşil düğmeye ve uzaklaştırmak için de eksi işaretli düğmeye hızla tıklayın; bitişik haritalar için yeşil okları kullanın.


METAR-TAF: